Muncie, IL (61857)

2:26 AM CDT on August 30, 2016 (GMT -0500)
Southeast corner of Fithian IL | | Change Station

Elev 669 ft 40.11 °N, 87.87 °W | Updated 11 seconds ago

Clear
Clear
70.1 °F
Feels Like 70.1 °F
N
0.0
Wind Variable Wind from NNE
Gusts 0.0 mph

Today
High -- | Low -- °F
--% Chance of Precip.
Yesterday
High -- | Low -- °F
Precip. -- in
Pressure 30.15 in
Visibility 5.0 miles
Clouds Clear
Dew Point -22 °F
Humidity 2%
Rainfall 0.00 in
Snow Depth Not available.
6:17 AM 7:25 PM
Waning Crescent, 5% visible
METAR KDNV 300715Z AUTO 01003KT 5SM BR CLR 21/21 A3015 RMK AO2 T02110210
Pressure 30.15 in
Visibility 5.0 miles
Clouds Clear
Dew Point -22 °F
Humidity 2%
Rainfall 0.00 in
Snow Depth Not available.
6:17 AM 7:25 PM
Waning Crescent, 5% visible
METAR KDNV 300715Z AUTO 01003KT 5SM BR CLR 21/21 A3015 RMK AO2 T02110210

10-Day Weather Forecast

Almanac

Astronomy

Aug. 30, 2016 Rise Set
Actual Time
Civil Twilight
Nautical Twilight
Astronomical Twilight
Moon
Length of Visible Light
Length of Day
Tomorrow will be .
, % of the Moon is Illuminated

Today's Extremes

State Highs State Lows

Community

WunderPhotos

Upload Photos

1,935,795 photos uploaded!

WunderBlog® & News

Nearby

Air Quality

  Air Quality AQ Index Pollutant
Not available.

Snow Depth

Station Depth Elevation

Earthquake Activity

City Distance Mag. Time & Date
Minimum magnitude displayed is 2.5.

Coastal Water Temperatures

Place Temperature

Stations

Nearby Weather Stations

Station Location Temp. Windchill Dew Point Humidity Wind Precip. Elev Updated Type
                   

Watches & Warnings

There are currently no watches in effect.